Nearby METAR Reports

 

KSJC - San Jose, California, USA
Distance from station: NE 9mi, 14km
Updated: Sat, 15-Dec-2018 2:53pm EST
Mostly cloudy
Mostly cloudy
 Wind from SSE
Wind: SSE 8 mph , 13 km/h
Temperature: 61°F , 16°C
Dew Point: 46°F , 8°C
Humidity: 59%
Barometer: 30.08 inHg , 1018.6 hPa
Clouds: Mostly cloudy
Visibility: 10 miles , 16 km
Cloud details: Partly cloudy 5000 ft
Partly cloudy 10000 ft
Mostly cloudy 13000 ft
2018/12/15 19:53 KSJC 151953Z 15007KT 10SM SCT050 SCT100 BKN130 16/08 A3008 RMK AO2 SLP184 T01610083
KNUQ - Moffett Nas/Mtn, California, USA
Distance from station: N 9mi, 14km
Updated: Sat, 15-Dec-2018 2:56pm EST
Partly cloudy
Partly cloudy
 Wind from SSE
Wind: SSE 7 mph , 11 km/h
Temperature: 63°F , 17°C
Dew Point: 48°F , 9°C
Humidity: 59%
Barometer: 30.08 inHg , 1018.6 hPa
Clouds: Partly cloudy
Visibility: 10 miles , 16 km
Cloud details: Partly cloudy 6500 ft
2018/12/15 19:56 KNUQ 151956Z 15006KT 10SM SCT065 17/09 A3008 RMK AO2 SLP187 T01670094 $
 
KPAO - Palo Alto, California, USA
Distance from station: NNW 14mi, 23km
Updated: Sat, 15-Dec-2018 1:47pm EST
NOT Current
Mostly cloudy
Mostly cloudy
 Wind from varies
Wind: varies 6 mph , 9 km/h
Temperature: 59°F , 15°C
Dew Point: 52°F , 11°C
Humidity: 77%
Barometer: 30.12 inHg , 1020 hPa
Clouds: Mostly cloudy
Visibility: 10 miles , 16 km
Cloud details: Mostly cloudy 5000 ft
2018/12/15 18:47 KPAO 151847Z VRB05KT 10SM BKN050 15/11 A3012
KRHV - San Jose/Reid, California, USA
Distance from station: ENE 12mi, 19km
Updated: Sat, 15-Dec-2018 2:55pm EST
Mostly cloudy
Mostly cloudy
 Wind from S
Wind: S 10 mph , 17 km/h
Temperature: 63°F , 17°C
Dew Point: 50°F , 10°C
Humidity: 64%
Barometer: 30.05 inHg , 1017.6 hPa
Clouds: Mostly cloudy
Visibility: 10 miles , 16 km
Cloud details: Partly cloudy 11000 ft
Mostly cloudy 15000 ft
2018/12/15 19:55 KRHV 151955Z 19009KT 10SM SCT110 BKN150 17/10 A3005
 
KOAK - Oakland, California, USA
Distance from station: NNW 31mi, 50km
Updated: Sat, 15-Dec-2018 2:53pm EST
Mostly cloudy
Mostly cloudy
 Wind from S
Wind: S 6 mph , 9 km/h
Temperature: 57°F , 14°C
Dew Point: 50°F , 10°C
Humidity: 77%
Barometer: 30.09 inHg , 1019 hPa
Clouds: Mostly cloudy
Visibility: 10 miles , 16 km
Cloud details: Mostly cloudy 4500 ft
Mostly cloudy 8000 ft
Mostly cloudy 20000 ft
2018/12/15 19:53 KOAK 151953Z 18005KT 10SM BKN045 BKN080 BKN200 14/10 A3009 RMK AO2 SLP188 T01440100
KSQL - San Carlos Airpo, California, USA
Distance from station: NW 21mi, 34km
Updated: Sat, 15-Dec-2018 2:47pm EST
Mostly cloudy
Mostly cloudy
 Wind from varies
Wind: varies 3 mph , 6 km/h
Temperature: 57°F , 14°C
Dew Point: 50°F , 10°C
Humidity: 77%
Barometer: 30.08 inHg , 1018.6 hPa
Clouds: Mostly cloudy
Visibility: 10 miles , 16 km
Cloud details: Mostly cloudy 7500 ft
2018/12/15 19:47 KSQL 151947Z VRB03KT 10SM BKN075 14/10 A3008
 
KSFO - San Francisco, California, USA
Distance from station: NW 30mi, 49km
Updated: Sat, 15-Dec-2018 2:56pm EST
Mostly cloudy
Mostly cloudy
 Wind from E
Wind: E 6 mph , 9 km/h
Temperature: 55°F , 13°C
Dew Point: 52°F , 11°C
Humidity: 88%
Barometer: 30.07 inHg , 1018.3 hPa
Clouds: Mostly cloudy
Visibility: 10 miles , 16 km
Cloud details: Partly cloudy 3300 ft
Partly cloudy 7000 ft
Mostly cloudy 9000 ft
2018/12/15 19:56 KSFO 151956Z 09005KT 10SM SCT033 SCT070 BKN090 13/11 A3007 RMK AO2 SLP183 T01330106
KE16 - San Martin, California, USA
Distance from station: ESE 27mi, 43km
Updated: Sat, 15-Dec-2018 3:10pm EST
Clear
Clear
 Wind from SE
Wind: SE 5 mph , 7 km/h
Temperature: 57°F , 14°C
Dew Point: 48°F , 9°C
Humidity: 72%
Barometer: 30.11 inHg , 1019.6 hPa
Clouds: Clear
Visibility: 10 miles , 16 km
2018/12/15 20:10 KE16 152010Z AUTO 14004KT 10SM CLR 14/09 A3011 RMK AO2 PWINO PNO
 
KWVI - Watsonville, California, USA
Distance from station: SSE 27mi, 44km
Updated: Sat, 15-Dec-2018 2:53pm EST
Clear
Clear
 Wind from calm
Wind: Calm
Temperature: 61°F , 16°C
Dew Point: 48°F , 9°C
Humidity: 63%
Barometer: 30.11 inHg , 1019.6 hPa
Clouds: Clear
Visibility: 10 miles , 16 km
2018/12/15 19:53 KWVI 151953Z AUTO 00000KT 10SM CLR 16/09 A3011 RMK AO2 SLP194 T01560089
KHAF - Half Moon Bay, California, USA
Distance from station: WNW 31mi, 50km
Updated: Sat, 15-Dec-2018 3:20pm EST
Haze, Partly cloudy
Haze, Partly cloudy
 Wind from S
Wind: S 10 mph , 17 km/h, Gust: 16 mph , 26 km/h
Temperature: 59°F , 15°C
Dew Point: 54°F , 12°C
Humidity: 82%
Barometer: 30.08 inHg , 1018.6 hPa
Summary: Haze
Clouds: Partly cloudy
Visibility: 4 miles , 6 km
Cloud details: Partly cloudy 5000 ft
2018/12/15 20:20 KHAF 152020Z AUTO 19009G14KT 4SM HZ SCT050 15/12 A3008 RMK AO2
 
KHWD - Hayward, California, USA
Distance from station: N 28mi, 44km
Updated: Sat, 15-Dec-2018 2:54pm EST
Partly cloudy
Partly cloudy
 Wind from SE
Wind: SE 10 mph , 17 km/h
Temperature: 63°F , 17°C
Dew Point: 46°F , 8°C
Humidity: 56%
Barometer: 30.07 inHg , 1018.3 hPa
Clouds: Partly cloudy
Visibility: 10 miles , 16 km
Cloud details: Partly cloudy 8500 ft
2018/12/15 19:54 KHWD 151954Z 13009KT 10SM SCT085 17/08 A3007 RMK AO2 SLP193 T01720083
KLVK - Livermore, California, USA
Distance from station: NNE 31mi, 51km
Updated: Sat, 15-Dec-2018 2:53pm EST
Clear
Clear
 Wind from calm
Wind: Calm
Temperature: 59°F , 15°C
Dew Point: 48°F , 9°C
Humidity: 68%
Barometer: 30.07 inHg , 1018.3 hPa
Clouds: Clear
Visibility: 10 miles , 16 km
2018/12/15 19:53 KLVK 151953Z 00000KT 10SM CLR 15/09 A3007 RMK AO2 SLP183 T01500089